Time;durP1;ratioP1;P1;durP2;ratioP2;P2;SDS_P1;SDS_P2;PMS_P1;PMS_P2;Temp;Humidity;BMP_temperature;BMP_pressure;BME280_temperature;BME280_humidity;BME280_pressure;Samples;Min_cycle;Max_cycle;Signal;HPM_P1;HPM_P2
2021/12/01 00:00:58;;;;;;;8.53;4.62;;;;;;;1.81;83.09;95008.75;1671339;85;21026;-80
2021/12/01 00:03:24;;;;;;;4.00;2.70;;;;;;;1.80;82.65;95000.75;1665377;85;21380;-79
2021/12/01 00:05:50;;;;;;;6.62;3.92;;;;;;;1.83;82.55;95006.83;1669001;86;20986;-79
2021/12/01 00:08:17;;;;;;;3.27;2.37;;;;;;;1.86;82.35;95014.19;1668530;84;20978;-80
2021/12/01 00:10:43;;;;;;;6.67;3.55;;;;;;;1.86;82.30;95014.19;1666953;86;21457;-79
2021/12/01 00:13:13;;;;;;;4.45;2.98;;;;;;;1.89;82.42;95013.05;1668530;86;21433;-79
2021/12/01 00:15:41;;;;;;;6.62;4.03;;;;;;;1.88;82.07;95014.02;1667022;86;21021;-79
2021/12/01 00:18:08;;;;;;;4.42;2.70;;;;;;;1.87;82.24;95014.50;1642431;86;21011;-80
2021/12/01 00:20:34;;;;;;;5.40;3.60;;;;;;;1.89;81.99;95034.34;1673452;85;21058;-79
2021/12/01 00:22:59;;;;;;;6.55;3.00;;;;;;;1.92;81.89;95035.30;1678363;84;20939;-79
2021/12/01 00:25:26;;;;;;;8.05;2.75;;;;;;;1.93;81.65;95039.94;1697248;84;20977;-79
2021/12/01 00:27:52;;;;;;;4.55;2.70;;;;;;;1.93;81.53;95047.63;1675853;84;21073;-79
2021/12/01 00:30:18;;;;;;;3.83;2.58;;;;;;;1.92;81.38;95051.16;1670031;85;21050;-79
2021/12/01 00:32:44;;;;;;;5.45;3.60;;;;;;;1.93;81.59;95046.34;1669324;86;21056;-79
2021/12/01 00:35:10;;;;;;;3.98;2.95;;;;;;;1.95;81.56;95057.23;1669989;86;21018;-79
2021/12/01 00:37:37;;;;;;;5.80;2.60;;;;;;;1.97;81.45;95057.89;1668555;85;20975;-79
2021/12/01 00:40:05;;;;;;;5.45;3.08;;;;;;;1.98;81.07;95066.70;1668726;85;21508;-79
2021/12/01 00:42:31;;;;;;;7.10;4.47;;;;;;;1.97;81.07;95059.17;1668175;86;21373;-79
2021/12/01 00:45:00;;;;;;;5.12;2.95;;;;;;;1.95;80.96;95069.58;1667362;86;20988;-80
2021/12/01 00:47:31;;;;;;;4.42;3.12;;;;;;;1.94;81.05;95071.80;1668400;86;21026;-79
2021/12/01 00:49:52;;;;;;;4.37;3.08;;;;;;;1.93;80.81;95077.88;1706929;84;21008;-79
2021/12/01 00:52:17;;;;;;;6.37;2.92;;;;;;;1.95;80.61;95080.28;1701186;83;20980;-79
2021/12/01 00:54:43;;;;;;;5.60;4.12;;;;;;;1.96;80.73;95065.27;1687099;85;20933;-79
2021/12/01 00:57:09;;;;;;;7.72;4.62;;;;;;;1.96;80.85;95075.51;1675143;86;20971;-79
2021/12/01 00:59:35;;;;;;;5.53;3.00;;;;;;;1.95;80.78;95080.28;1678364;84;21146;-79
2021/12/01 01:02:01;;;;;;;7.95;3.45;;;;;;;1.93;81.14;95091.97;1678224;85;21039;-79
2021/12/01 01:04:26;;;;;;;4.83;2.58;;;;;;;1.92;80.75;95086.53;1648205;86;21301;-79
2021/12/01 01:06:52;;;;;;;6.30;3.20;;;;;;;1.96;80.68;95097.28;1672002;86;21065;-79
2021/12/01 01:09:20;;;;;;;5.75;2.70;;;;;;;1.98;80.62;95085.11;1673924;84;21142;-79
2021/12/01 01:17:24;;;;;;;4.50;3.20;;;;;;;1.97;80.92;95106.09;1675136;86;21337;-79
2021/12/01 01:19:47;;;;;;;5.15;2.47;;;;;;;1.97;80.84;95124.50;1647474;86;22261;-79
2021/12/01 01:22:13;;;;;;;4.35;2.92;;;;;;;1.97;80.72;95118.89;1675276;85;21047;-79
2021/12/01 01:24:39;;;;;;;4.50;2.70;;;;;;;2.00;80.86;95126.73;1673004;86;20993;-79
2021/12/01 01:27:05;;;;;;;5.08;2.67;;;;;;;2.00;80.83;95135.22;1709212;83;21343;-79
2021/12/01 01:29:34;;;;;;;4.37;3.12;;;;;;;1.98;80.42;95134.59;1710358;83;21083;-79
2021/12/01 01:31:58;;;;;;;5.00;2.15;;;;;;;1.98;80.64;95138.91;1724923;83;20976;-79
2021/12/01 01:34:25;;;;;;;4.20;2.30;;;;;;;1.96;80.37;95149.32;1724828;83;20991;-79
2021/12/01 01:36:51;;;;;;;4.45;2.40;;;;;;;1.97;80.18;95152.68;1713231;83;21096;-79
2021/12/01 01:39:17;;;;;;;4.37;2.45;;;;;;;1.99;79.92;95153.31;1710098;83;21057;-79
2021/12/01 01:41:43;;;;;;;5.92;2.10;;;;;;;2.00;79.67;95164.69;1724773;83;21014;-80
2021/12/01 01:44:08;;;;;;;6.10;2.42;;;;;;;1.99;79.41;95170.77;1723062;83;20973;-79
2021/12/01 01:46:37;;;;;;;4.30;2.40;;;;;;;1.98;79.10;95174.77;1717161;83;20992;-79
2021/12/01 01:49:16;;;;;;;3.12;2.02;;;;;;;1.97;79.21;95170.13;1685102;83;21429;-79
2021/12/01 01:51:39;;;;;;;3.85;2.25;;;;;;;1.98;78.73;95171.73;1725107;83;21019;-79
2021/12/01 01:54:05;;;;;;;3.72;2.37;;;;;;;1.99;79.10;95177.17;1723443;83;21407;-79
2021/12/01 01:56:31;;;;;;;4.58;2.95;;;;;;;1.99;79.11;95186.63;1675315;85;20978;-79
2021/12/01 01:58:57;;;;;;;5.95;3.10;;;;;;;2.00;79.54;95187.75;1671825;86;21412;-79
2021/12/01 02:04:08;;;;;;;5.25;2.77;;;;;;;1.97;79.93;95190.63;1676263;85;20997;-79
2021/12/01 02:06:35;;;;;;;4.62;2.62;;;;;;;1.96;79.89;95200.55;1707026;83;21037;-79
2021/12/01 02:09:00;;;;;;;5.05;2.58;;;;;;;1.96;80.01;95207.44;1693048;83;20975;-79
2021/12/01 02:11:27;;;;;;;5.10;3.12;;;;;;;1.97;79.93;95201.36;1623531;86;20971;-79
2021/12/01 02:13:53;;;;;;;3.55;2.60;;;;;;;1.98;79.84;95201.67;1678815;85;21027;-79
2021/12/01 02:16:20;;;;;;;3.62;2.40;;;;;;;1.98;79.89;95206.80;1676365;85;21357;-80
2021/12/01 02:18:46;;;;;;;5.15;2.77;;;;;;;1.99;79.60;95217.37;1690239;84;21077;-79
2021/12/01 02:21:17;;;;;;;5.58;3.08;;;;;;;1.99;80.06;95226.33;1674523;84;20983;-79
2021/12/01 02:23:49;;;;;;;6.42;2.75;;;;;;;2.00;80.40;95231.30;1707121;83;21023;-79
2021/12/01 02:26:18;;;;;;;3.80;2.10;;;;;;;2.00;80.18;95231.78;1707077;83;20977;-79
2021/12/01 02:28:46;;;;;;;6.62;2.80;;;;;;;2.03;80.14;95232.26;1692235;83;21082;-79
2021/12/01 02:31:12;;;;;;;5.50;2.80;;;;;;;2.05;80.10;95228.25;1677733;84;21044;-79
2021/12/01 02:33:38;;;;;;;3.62;2.37;;;;;;;2.03;80.20;95227.61;1692734;84;21047;-79
2021/12/01 02:36:06;;;;;;;5.33;2.70;;;;;;;2.01;80.28;95226.97;1678986;84;21007;-79
2021/12/01 02:38:32;;;;;;;3.92;2.85;;;;;;;2.00;80.53;95235.14;1676386;85;21443;-79
2021/12/01 02:40:57;;;;;;;3.47;2.27;;;;;;;2.01;80.65;95244.91;1706921;84;20980;-79
2021/12/01 02:43:24;;;;;;;3.92;2.05;;;;;;;2.02;80.52;95247.80;1707072;83;20918;-79
2021/12/01 02:45:52;;;;;;;4.08;2.00;;;;;;;2.00;80.00;95256.92;1685447;83;20999;-79
2021/12/01 02:48:18;;;;;;;3.80;1.85;;;;;;;1.98;79.31;95269.56;1678573;84;20960;-79
2021/12/01 02:50:44;;;;;;;2.98;1.92;;;;;;;1.97;78.68;95271.80;1672945;85;21025;-79
2021/12/01 02:53:10;;;;;;;3.17;1.70;;;;;;;1.92;77.73;95279.94;1707039;83;21056;-79
2021/12/01 02:55:58;;;;;;;3.15;2.22;;;;;;;1.92;77.78;95285.06;1706967;83;20990;-79
2021/12/01 02:58:26;;;;;;;4.17;2.12;;;;;;;1.92;77.29;95291.95;1706876;84;21052;-79
2021/12/01 03:00:54;;;;;;;5.28;2.40;;;;;;;1.95;77.65;95289.06;1702270;84;21465;-79
2021/12/01 03:03:20;;;;;;;3.72;2.50;;;;;;;1.94;77.85;95297.23;1676690;84;20971;-79
2021/12/01 03:05:47;;;;;;;4.05;2.20;;;;;;;1.92;77.57;95299.63;1674382;85;21009;-79
2021/12/01 03:08:15;;;;;;;8.60;2.83;;;;;;;1.91;77.46;95305.71;1699826;83;21028;-79
2021/12/01 03:10:49;;;;;;;4.15;1.98;;;;;;;1.89;78.16;95317.39;1676868;85;21042;-79
2021/12/01 03:13:16;;;;;;;4.08;2.30;;;;;;;1.89;78.46;95309.71;1677330;85;20982;-79
2021/12/01 03:15:42;;;;;;;4.42;2.00;;;;;;;1.87;78.33;95312.91;1647544;85;21068;-79
2021/12/01 03:18:09;;;;;;;6.25;1.62;;;;;;;1.85;77.85;95348.12;1673592;86;20939;-79
2021/12/01 03:20:35;;;;;;;4.55;1.70;;;;;;;1.82;77.01;95336.11;1670199;85;21056;-79
2021/12/01 03:23:01;;;;;;;4.05;1.70;;;;;;;1.82;77.20;95336.91;1670027;85;20970;-79
2021/12/01 03:25:27;;;;;;;4.45;2.25;;;;;;;1.82;76.66;95340.75;1647801;86;21026;-79
2021/12/01 03:27:53;;;;;;;6.10;2.25;;;;;;;1.80;76.43;95345.23;1675254;85;21425;-79
2021/12/01 03:30:19;;;;;;;4.28;2.58;;;;;;;1.78;77.15;95342.80;1673656;85;21434;-79
2021/12/01 03:32:45;;;;;;;4.00;1.37;;;;;;;1.76;76.93;95345.19;1670031;86;20978;-79
2021/12/01 03:35:12;;;;;;;6.53;2.20;;;;;;;1.74;76.07;95350.46;1669856;86;20989;-79
2021/12/01 03:37:41;;;;;;;4.22;2.12;;;;;;;1.74;77.15;95356.86;1670031;86;20997;-79
2021/12/01 03:40:08;;;;;;;5.28;2.72;;;;;;;1.73;77.25;95357.83;1669867;86;21033;-79
2021/12/01 03:42:34;;;;;;;5.75;2.70;;;;;;;1.74;77.72;95365.03;1670047;85;21013;-79
2021/12/01 03:45:00;;;;;;;3.90;2.22;;;;;;;1.73;77.28;95363.42;1664194;86;21320;-79
2021/12/01 03:47:26;;;;;;;4.15;2.22;;;;;;;1.74;77.60;95367.59;1672476;86;21042;-79
2021/12/01 03:49:52;;;;;;;3.87;2.25;;;;;;;1.72;77.37;95369.02;1675166;86;20990;-79
2021/12/01 03:52:18;;;;;;;4.62;2.15;;;;;;;1.71;77.51;95375.10;1674259;86;21052;-79
2021/12/01 03:54:45;;;;;;;4.97;2.05;;;;;;;1.69;77.44;95376.21;1669945;86;21033;-79
2021/12/01 03:57:11;;;;;;;3.22;2.10;;;;;;;1.66;77.24;95382.45;1670967;86;20966;-79
2021/12/01 03:59:37;;;;;;;4.35;1.95;;;;;;;1.64;77.73;95383.08;1673912;85;21092;-79
2021/12/01 04:02:03;;;;;;;5.53;2.37;;;;;;;1.64;77.80;95388.67;1674451;86;21046;-79
2021/12/01 04:04:29;;;;;;;4.45;2.12;;;;;;;1.64;77.81;95377.95;1672753;85;20985;-79
2021/12/01 04:06:55;;;;;;;4.92;2.72;;;;;;;1.65;77.58;95373.63;1672380;85;21006;-79
2021/12/01 04:09:20;;;;;;;4.72;2.20;;;;;;;1.64;77.91;95377.95;1651024;85;21039;-79
2021/12/01 04:11:47;;;;;;;6.00;2.30;;;;;;;1.62;77.94;95379.84;1671936;85;21069;-79
2021/12/01 04:14:14;;;;;;;4.90;2.62;;;;;;;1.60;78.04;95384.30;1706853;83;20981;-79
2021/12/01 04:16:39;;;;;;;6.72;2.62;;;;;;;1.60;78.28;95380.47;1693516;83;21402;-79
2021/12/01 04:19:06;;;;;;;5.42;2.47;;;;;;;1.62;78.19;95382.87;1678426;84;20972;-79
2021/12/01 04:21:31;;;;;;;6.00;2.72;;;;;;;1.62;78.02;95386.72;1676781;85;21133;-79
2021/12/01 04:23:57;;;;;;;6.78;2.67;;;;;;;1.61;78.34;95386.39;1690283;84;21005;-79
2021/12/01 04:26:26;;;;;;;5.15;2.33;;;;;;;1.59;78.55;95383.19;1678420;84;21023;-79
2021/12/01 04:28:52;;;;;;;3.60;2.50;;;;;;;1.58;78.60;95390.06;1677073;85;21504;-79
2021/12/01 04:31:18;;;;;;;6.45;2.50;;;;;;;1.58;78.67;95394.38;1690064;85;21396;-79
2021/12/01 04:33:44;;;;;;;6.25;2.90;;;;;;;1.58;78.47;95400.78;1678685;84;21043;-79
2021/12/01 04:36:11;;;;;;;3.62;2.20;;;;;;;1.56;78.48;95406.05;1677043;85;20959;-79
2021/12/01 04:38:37;;;;;;;3.70;2.30;;;;;;;1.57;78.48;95411.98;1677819;84;21000;-79
2021/12/01 04:41:03;;;;;;;7.30;2.85;;;;;;;1.55;78.33;95411.33;1670022;85;20985;-79
2021/12/01 04:43:28;;;;;;;5.65;3.02;;;;;;;1.55;78.50;95410.84;1670131;86;21313;-79
2021/12/01 04:45:59;;;;;;;5.37;2.60;;;;;;;1.56;78.63;95421.41;1671498;86;21117;-79
2021/12/01 04:48:22;;;;;;;5.25;2.52;;;;;;;1.54;78.08;95414.36;1689945;84;20974;-79
2021/12/01 04:50:48;;;;;;;3.58;2.75;;;;;;;1.54;78.24;95412.28;1671789;85;21338;-79
2021/12/01 04:53:14;;;;;;;5.33;2.47;;;;;;;1.52;78.12;95416.75;1674968;86;20997;-79
2021/12/01 04:55:40;;;;;;;7.25;3.25;;;;;;;1.49;78.18;95412.26;1675135;86;21014;-79
2021/12/01 04:58:05;;;;;;;8.35;2.87;;;;;;;1.48;78.23;95413.22;1675107;86;20998;-79
2021/12/01 05:00:34;;;;;;;5.08;3.08;;;;;;;1.50;78.29;95417.70;1645371;86;21157;-79
2021/12/01 05:02:59;;;;;;;5.47;3.25;;;;;;;1.50;78.34;95415.63;1675209;84;21019;-79
2021/12/01 05:05:25;;;;;;;6.28;2.65;;;;;;;1.51;78.35;95414.67;1695781;84;21392;-79
2021/12/01 05:07:53;;;;;;;5.70;2.67;;;;;;;1.51;78.13;95401.87;1698078;84;21084;-79
2021/12/01 05:10:19;;;;;;;5.00;2.80;;;;;;;1.54;78.14;95414.84;1675012;85;20968;-79
2021/12/01 05:12:45;;;;;;;5.28;3.58;;;;;;;1.52;77.93;95408.59;1687050;84;20956;-81
2021/12/01 05:15:11;;;;;;;5.72;2.87;;;;;;;1.50;78.40;95404.10;1674908;85;21030;-79
2021/12/01 05:17:37;;;;;;;7.42;2.95;;;;;;;1.50;78.37;95397.22;1687050;85;20975;-79
2021/12/01 05:20:04;;;;;;;7.80;2.98;;;;;;;1.49;78.00;95388.41;1672481;86;21026;-79
2021/12/01 05:22:31;;;;;;;5.97;3.00;;;;;;;1.48;78.29;95395.30;1686926;85;21030;-79
2021/12/01 05:24:57;;;;;;;5.22;2.67;;;;;;;1.49;78.38;95396.90;1674935;85;21394;-79
2021/12/01 05:27:22;;;;;;;7.62;4.58;;;;;;;1.53;78.52;95394.84;1686974;84;20985;-79
2021/12/01 05:29:48;;;;;;;7.03;2.92;;;;;;;1.56;78.62;95386.05;1672282;84;21037;-79
2021/12/01 05:32:16;;;;;;;6.67;3.20;;;;;;;1.57;78.44;95396.61;1670327;86;21062;-79
2021/12/01 05:34:41;;;;;;;5.85;3.20;;;;;;;1.58;78.43;95400.78;1675026;85;20987;-79
2021/12/01 05:37:07;;;;;;;6.40;3.40;;;;;;;1.60;78.55;95393.75;1674980;86;21011;-79
2021/12/01 05:39:33;;;;;;;5.03;2.90;;;;;;;1.58;78.67;95396.94;1669828;86;21460;-79
2021/12/01 05:41:59;;;;;;;7.72;3.25;;;;;;;1.62;78.54;95395.67;1674760;85;21071;-79
2021/12/01 05:44:26;;;;;;;5.92;3.90;;;;;;;1.64;78.33;95385.64;1687024;85;20975;-79
2021/12/01 05:46:53;;;;;;;7.10;4.05;;;;;;;1.64;78.35;95380.52;1672184;85;21046;-79
2021/12/01 05:49:18;;;;;;;5.83;3.58;;;;;;;1.63;78.54;95380.19;1669255;86;21033;-79
2021/12/01 05:51:44;;;;;;;7.67;3.52;;;;;;;1.63;78.56;95375.55;1669091;86;21001;-79
2021/12/01 05:54:10;;;;;;;6.78;3.67;;;;;;;1.65;78.77;95377.48;1669245;86;20973;-79
2021/12/01 05:56:36;;;;;;;8.10;4.37;;;;;;;1.65;78.79;95366.75;1654926;86;21121;-79
2021/12/01 05:59:02;;;;;;;6.75;3.62;;;;;;;1.67;78.67;95362.77;1675023;86;21463;-79
2021/12/01 06:01:28;;;;;;;7.55;4.20;;;;;;;1.68;78.73;95356.20;1695743;84;21388;-79
2021/12/01 06:03:54;;;;;;;7.72;3.85;;;;;;;1.70;78.48;95362.45;1727443;82;20987;-79
2021/12/01 06:06:19;;;;;;;11.35;5.70;;;;;;;1.68;78.20;95365.16;1710633;83;20943;-79
2021/12/01 06:08:45;;;;;;;9.63;4.50;;;;;;;1.61;78.35;95353.91;1705619;83;20983;-79
2021/12/01 06:11:11;;;;;;;19.45;8.95;;;;;;;1.62;78.23;95367.52;1705252;83;20998;-79
2021/12/01 06:13:37;;;;;;;22.32;10.05;;;;;;;1.59;78.36;95368.63;1704891;83;21369;-79
2021/12/01 06:16:04;;;;;;;36.20;15.95;;;;;;;1.57;78.55;95379.97;1721066;83;21061;-79
2021/12/01 06:18:30;;;;;;;46.00;20.52;;;;;;;1.56;78.79;95374.05;1727470;83;20974;-79
2021/12/01 06:20:57;;;;;;;71.07;29.02;;;;;;;1.62;78.96;95376.47;1727401;82;20955;-79
2021/12/01 06:23:24;;;;;;;121.15;45.83;;;;;;;1.65;78.96;95371.88;1711774;83;21030;-79
2021/12/01 06:25:50;;;;;;;86.55;33.53;;;;;;;1.67;78.90;95362.77;1705245;83;21025;-79
2021/12/01 06:28:15;;;;;;;77.78;32.55;;;;;;;1.65;78.76;95357.80;1682791;83;20983;-79
2021/12/01 06:30:41;;;;;;;71.15;29.12;;;;;;;1.64;79.04;95371.55;1705109;83;21336;-79
2021/12/01 06:33:07;;;;;;;66.82;28.45;;;;;;;1.63;79.11;95368.67;1705025;83;20960;-80
2021/12/01 06:35:34;;;;;;;48.23;23.83;;;;;;;1.67;79.22;95372.52;1704829;83;21046;-79
2021/12/01 06:38:00;;;;;;;36.58;19.50;;;;;;;1.72;79.04;95370.78;1704971;83;20971;-79
2021/12/01 06:40:26;;;;;;;24.85;12.45;;;;;;;1.72;78.94;95381.02;1705236;83;21014;-79
2021/12/01 06:42:53;;;;;;;21.50;11.22;;;;;;;1.69;78.91;95380.86;1705087;83;21444;-79
2021/12/01 06:45:19;;;;;;;17.02;9.38;;;;;;;1.66;79.06;95382.92;1705140;83;20999;-79
2021/12/01 06:47:45;;;;;;;16.17;10.48;;;;;;;1.64;79.13;95389.48;1705183;83;21014;-79
2021/12/01 06:50:11;;;;;;;23.12;15.50;;;;;;;1.62;79.21;95380.31;1705085;83;20967;-79
2021/12/01 06:52:38;;;;;;;16.35;10.75;;;;;;;1.57;79.01;95385.09;1705056;83;20947;-79
2021/12/01 06:55:05;;;;;;;13.68;8.35;;;;;;;1.52;79.22;95379.15;1718273;83;21002;-79
2021/12/01 06:57:31;;;;;;;12.33;6.20;;;;;;;1.50;79.26;95379.30;1727457;83;21034;-79
2021/12/01 06:59:57;;;;;;;10.72;5.72;;;;;;;1.48;79.38;95381.69;1727227;83;21062;-79
2021/12/01 07:02:22;;;;;;;6.90;4.50;;;;;;;1.48;79.67;95376.09;1721018;83;20994;-79
2021/12/01 07:04:48;;;;;;;10.35;6.50;;;;;;;1.48;79.95;95369.70;1726786;83;20955;-79
2021/12/01 07:07:14;;;;;;;8.10;5.00;;;;;;;1.43;79.90;95368.52;1726762;82;21378;-79
2021/12/01 07:09:40;;;;;;;8.40;5.65;;;;;;;1.42;80.04;95370.28;1726981;82;21006;-79
2021/12/01 07:12:06;;;;;;;10.68;8.80;;;;;;;1.43;80.14;95368.04;1726840;83;20979;-79
2021/12/01 07:14:32;;;;;;;13.95;10.20;;;;;;;1.43;80.10;95359.08;1726651;83;20971;-79
2021/12/01 07:16:59;;;;;;;8.63;5.72;;;;;;;1.46;80.37;95352.85;1726424;83;22024;-79
2021/12/01 07:19:25;;;;;;;12.90;10.35;;;;;;;1.45;80.64;95348.69;1726532;83;21038;-79
2021/12/01 07:21:51;;;;;;;17.42;13.53;;;;;;;1.44;80.22;95335.56;1702293;83;21065;-79
2021/12/01 07:24:19;;;;;;;9.23;7.08;;;;;;;1.45;80.21;95337.17;1726718;83;21042;-79
2021/12/01 07:26:44;;;;;;;5.37;3.85;;;;;;;1.42;79.77;95333.64;1723921;83;20993;-79
2021/12/01 07:29:10;;;;;;;7.30;5.60;;;;;;;1.39;79.41;95319.87;1715660;83;21199;-79
2021/12/01 07:31:36;;;;;;;4.75;3.42;;;;;;;1.39;79.38;95314.75;1726545;83;21101;-79
2021/12/01 07:34:02;;;;;;;7.60;4.92;;;;;;;1.41;78.94;95307.72;1726595;83;21006;-79
2021/12/01 07:36:28;;;;;;;6.37;4.08;;;;;;;1.42;78.48;95294.77;1726965;83;21034;-79
2021/12/01 07:38:53;;;;;;;6.30;5.28;;;;;;;1.46;77.88;95296.09;1726730;83;21385;-79
2021/12/01 07:41:21;;;;;;;6.10;4.00;;;;;;;1.50;77.44;95283.78;1718283;83;21332;-79
2021/12/01 07:43:47;;;;;;;7.70;3.33;;;;;;;1.52;77.12;95279.30;1706227;83;20993;-79
2021/12/01 07:46:14;;;;;;;4.17;2.20;;;;;;;1.55;77.27;95278.19;1706307;83;20946;-79
2021/12/01 07:48:40;;;;;;;3.47;2.47;;;;;;;1.58;77.25;95283.80;1706270;83;21119;-79
2021/12/01 07:51:06;;;;;;;6.67;4.33;;;;;;;1.55;76.85;95266.20;1706317;83;21432;-79
2021/12/01 07:53:32;;;;;;;6.62;4.00;;;;;;;1.55;76.85;95266.20;1690119;83;21371;-79
2021/12/01 07:55:58;;;;;;;4.17;2.87;;;;;;;1.61;76.80;95261.73;1706195;83;20985;-79
2021/12/01 07:58:23;;;;;;;4.53;2.92;;;;;;;1.61;76.50;95260.45;1706159;83;20961;-79
2021/12/01 08:00:50;;;;;;;5.12;3.30;;;;;;;1.62;76.72;95257.41;1694202;82;20970;-79
2021/12/01 08:03:15;;;;;;;5.40;3.85;;;;;;;1.63;76.28;95255.20;1726419;83;21035;-79
2021/12/01 08:05:41;;;;;;;6.28;2.90;;;;;;;1.62;76.33;95249.73;1726670;83;20986;-79
2021/12/01 08:08:10;;;;;;;6.25;3.92;;;;;;;1.58;75.33;95249.24;1714598;82;21333;-79
2021/12/01 08:10:35;;;;;;;7.47;3.70;;;;;;;1.57;75.65;95243.00;1726692;83;21002;-79
2021/12/01 08:13:01;;;;;;;5.28;3.90;;;;;;;1.58;75.49;95244.60;1726705;83;21376;-79
2021/12/01 08:15:27;;;;;;;4.03;2.95;;;;;;;1.60;75.70;95239.64;1706570;83;21035;-79
2021/12/01 08:17:54;;;;;;;3.55;3.25;;;;;;;1.61;74.90;95243.80;1669994;86;21002;-79
2021/12/01 08:20:20;;;;;;;4.35;3.95;;;;;;;1.62;74.44;95248.45;1669269;86;21101;-79
2021/12/01 08:22:47;;;;;;;3.83;3.52;;;;;;;1.64;73.09;95237.60;1673964;86;21029;-79
2021/12/01 08:25:14;;;;;;;2.45;2.08;;;;;;;1.70;72.92;95240.81;1674895;86;21083;-79
2021/12/01 08:27:40;;;;;;;5.50;1.70;;;;;;;1.73;73.15;95228.49;1686989;85;21034;-80
2021/12/01 08:30:07;;;;;;;2.67;1.80;;;;;;;1.76;71.63;95228.17;1675005;84;21548;-79
2021/12/01 08:32:33;;;;;;;4.40;2.20;;;;;;;1.81;71.96;95231.58;1687003;84;20997;-79
2021/12/01 08:34:59;;;;;;;4.42;2.30;;;;;;;1.85;72.49;95232.06;1687172;84;21003;-79
2021/12/01 08:37:25;;;;;;;2.80;1.77;;;;;;;1.86;72.35;95237.50;1704586;84;20997;-79
2021/12/01 08:39:51;;;;;;;2.75;2.15;;;;;;;1.89;72.50;95239.75;1695347;83;21051;-79
2021/12/01 08:42:20;;;;;;;6.53;2.98;;;;;;;1.91;72.44;95229.66;1687152;84;20989;-79
2021/12/01 08:44:47;;;;;;;4.33;2.10;;;;;;;1.93;72.25;95220.05;1686699;84;21063;-79
2021/12/01 08:47:17;;;;;;;5.65;3.22;;;;;;;1.97;72.54;95216.25;1686957;84;21020;-79
2021/12/01 08:49:43;;;;;;;5.70;3.37;;;;;;;1.96;72.13;95231.30;1687116;84;20980;-79
2021/12/01 08:52:09;;;;;;;4.70;3.08;;;;;;;1.98;72.57;95219.61;1687313;84;20940;-79
2021/12/01 08:54:35;;;;;;;5.28;2.67;;;;;;;2.01;72.47;95211.60;1691269;84;20965;-79
2021/12/01 08:57:01;;;;;;;4.67;2.70;;;;;;;2.02;72.71;95209.36;1706435;83;21004;-80
2021/12/01 08:59:27;;;;;;;4.50;2.83;;;;;;;2.07;72.78;95209.68;1706288;83;21053;-79
2021/12/01 09:01:53;;;;;;;4.70;2.90;;;;;;;2.13;72.49;95202.66;1691006;83;21122;-79
2021/12/01 09:04:19;;;;;;;4.95;2.92;;;;;;;2.19;71.56;95197.38;1685800;85;21024;-79
2021/12/01 09:06:45;;;;;;;6.20;3.20;;;;;;;2.24;71.30;95202.81;1662114;85;21020;-79
2021/12/01 09:09:18;;;;;;;4.75;2.70;;;;;;;2.29;71.52;95194.19;1655076;85;21049;-79
2021/12/01 09:11:39;;;;;;;3.15;2.25;;;;;;;2.35;71.71;95200.75;1657002;85;21412;-80
2021/12/01 09:14:04;;;;;;;5.47;3.12;;;;;;;2.46;71.02;95193.70;1657494;85;21002;-79
2021/12/01 09:16:30;;;;;;;4.37;2.22;;;;;;;2.55;71.38;95193.53;1657459;85;21009;-79
2021/12/01 09:18:56;;;;;;;5.62;2.12;;;;;;;2.64;72.05;95187.92;1661253;85;21542;-79
2021/12/01 09:21:22;;;;;;;4.67;2.17;;;;;;;2.73;72.17;95186.94;1672434;84;21034;-79
2021/12/01 09:23:48;;;;;;;5.28;3.00;;;;;;;2.84;72.26;95172.98;1660549;85;20943;-79
2021/12/01 09:26:14;;;;;;;4.15;2.22;;;;;;;2.95;72.65;95175.22;1685700;85;21003;-79
2021/12/01 09:28:39;;;;;;;2.62;2.22;;;;;;;3.06;72.32;95173.56;1685437;84;21067;-79
2021/12/01 09:31:05;;;;;;;5.15;2.70;;;;;;;3.16;71.88;95161.84;1673956;84;21001;-79
2021/12/01 09:33:32;;;;;;;3.58;2.20;;;;;;;3.25;72.18;95165.95;1678331;85;21405;-80
2021/12/01 09:35:58;;;;;;;4.50;2.42;;;;;;;3.30;72.28;95155.53;1684845;84;21019;-79
2021/12/01 09:38:24;;;;;;;4.92;2.60;;;;;;;3.39;72.78;95160.62;1685676;84;20948;-79
2021/12/01 09:40:53;;;;;;;4.80;2.12;;;;;;;3.46;73.16;95151.30;1685446;85;21362;-79
2021/12/01 09:43:22;;;;;;;6.62;3.62;;;;;;;3.50;72.62;95157.20;1685683;85;21016;-79
2021/12/01 09:45:48;;;;;;;5.22;2.17;;;;;;;3.52;73.14;95148.84;1685447;85;21067;-79
2021/12/01 09:48:14;;;;;;;7.33;2.52;;;;;;;3.58;72.83;95149.47;1664867;85;21025;-79
2021/12/01 09:50:40;;;;;;;3.22;2.00;;;;;;;3.65;72.92;95144.94;1657455;85;20997;-79
2021/12/01 09:53:06;;;;;;;2.50;2.17;;;;;;;3.69;73.10;95139.77;1657400;85;20985;-79
2021/12/01 09:55:32;;;;;;;3.37;1.77;;;;;;;3.79;72.88;95146.78;1657471;85;21010;-80
2021/12/01 09:58:11;;;;;;;3.30;2.05;;;;;;;3.82;73.33;95152.86;1657313;85;20990;-79
2021/12/01 10:00:43;;;;;;;3.52;1.82;;;;;;;3.81;72.94;95152.06;1659720;84;21117;-80
2021/12/01 10:03:09;;;;;;;4.25;2.33;;;;;;;3.78;73.27;95139.56;1687117;84;20996;-79
2021/12/01 10:06:09;;;;;;;3.60;2.00;;;;;;;3.81;73.59;95144.36;1687071;84;21098;-79
2021/12/01 10:08:39;;;;;;;4.75;2.80;;;;;;;3.84;73.29;95133.73;1682658;84;21012;-79
2021/12/01 10:11:12;;;;;;;3.12;1.90;;;;;;;3.90;73.87;95145.92;1686408;84;20956;-79
2021/12/01 10:13:41;;;;;;;2.55;1.75;;;;;;;3.90;73.78;95138.66;1687114;84;20944;-79
2021/12/01 10:16:10;;;;;;;2.22;1.70;;;;;;;3.85;73.65;95129.39;1687026;84;20979;-79
2021/12/01 10:18:46;;;;;;;2.05;1.65;;;;;;;3.78;73.80;95128.48;1687242;84;21087;-79
2021/12/01 10:21:22;;;;;;;3.25;1.47;;;;;;;3.75;73.99;95139.11;1687038;84;21119;-79
2021/12/01 10:23:52;;;;;;;1.87;1.52;;;;;;;3.71;74.17;95138.63;1687124;84;21438;-79
2021/12/01 10:26:31;;;;;;;3.25;2.02;;;;;;;3.68;73.90;95133.83;1686896;84;21015;-79
2021/12/01 10:29:05;;;;;;;2.33;1.30;;;;;;;3.65;74.36;95131.60;1677816;84;21071;-80
2021/12/01 10:31:47;;;;;;;2.08;1.50;;;;;;;3.65;74.61;95132.09;1699716;84;21064;-80
2021/12/01 10:34:20;;;;;;;2.55;1.90;;;;;;;3.63;74.68;95123.76;1706375;83;20989;-80
2021/12/01 10:36:48;;;;;;;2.50;2.02;;;;;;;3.62;74.80;95120.39;1706234;83;21435;-80
2021/12/01 10:39:16;;;;;;;2.83;1.75;;;;;;;3.62;74.99;95112.69;1706242;84;21025;-80
2021/12/01 10:41:43;;;;;;;2.20;1.55;;;;;;;3.61;75.37;95100.81;1706192;83;21036;-80
2021/12/01 10:44:16;;;;;;;2.72;1.40;;;;;;;3.60;75.39;95102.58;1706226;83;21025;-80
2021/12/01 10:46:46;;;;;;;2.98;1.92;;;;;;;3.62;75.59;95092.13;1705527;83;21369;-80
2021/12/01 10:49:12;;;;;;;2.50;1.92;;;;;;;3.64;75.48;95085.55;1688561;83;21011;-80
2021/12/01 10:51:40;;;;;;;3.70;2.10;;;;;;;3.64;75.87;95093.25;1686329;84;20971;-80
2021/12/01 10:54:17;;;;;;;2.67;1.62;;;;;;;3.65;76.20;95087.14;1687222;84;21008;-80
2021/12/01 10:56:43;;;;;;;2.58;1.62;;;;;;;3.61;75.50;95082.34;1687084;84;21088;-80
2021/12/01 10:59:15;;;;;;;2.60;1.60;;;;;;;3.58;75.88;95073.70;1686309;84;21553;-80
2021/12/01 11:01:41;;;;;;;2.33;1.47;;;;;;;3.57;75.90;95073.36;1686631;84;20992;-80
2021/12/01 11:04:07;;;;;;;3.08;1.55;;;;;;;3.55;75.99;95067.59;1692441;84;21368;-80
2021/12/01 11:06:39;;;;;;;2.58;1.60;;;;;;;3.55;76.21;95068.08;1706358;83;20997;-80
2021/12/01 11:09:05;;;;;;;;;;;;;;;3.52;76.63;95062.80;1690765;84;21035;-80
2021/12/01 11:11:43;;;;;;;2.22;1.45;;;;;;;3.51;77.04;95041.15;1686546;84;20115;-81
2021/12/01 11:14:16;;;;;;;2.33;1.80;;;;;;;3.51;77.30;95040.66;1686599;84;20944;-80
2021/12/01 11:16:43;;;;;;;2.87;1.50;;;;;;;3.57;77.45;95036.12;1701076;84;21384;-80
2021/12/01 11:19:09;;;;;;;2.20;1.52;;;;;;;3.63;77.37;95031.28;1706289;83;20975;-80
2021/12/01 11:21:35;;;;;;;1.95;1.42;;;;;;;3.65;77.54;95038.33;1705652;83;20989;-80
2021/12/01 11:24:06;;;;;;;1.70;1.30;;;;;;;3.68;77.71;95030.28;1686400;84;21018;-80
2021/12/01 11:26:32;;;;;;;3.35;2.10;;;;;;;3.65;77.77;95030.14;1686937;84;21047;-80
2021/12/01 11:29:00;;;;;;;3.77;1.92;;;;;;;3.66;78.16;95032.22;1687248;84;21035;-80
2021/12/01 11:31:31;;;;;;;2.35;1.60;;;;;;;3.68;78.64;95022.57;1687222;84;21086;-80
2021/12/01 11:34:04;;;;;;;;;;;;;;;3.66;78.96;95028.37;1703992;84;21108;-80
2021/12/01 11:36:35;;;;;;;1.77;1.60;;;;;;;3.64;79.29;95014.91;1698066;83;20374;-80
2021/12/01 11:39:05;;;;;;;1.85;1.75;;;;;;;3.57;79.62;95006.58;1687377;84;21035;-80
2021/12/01 11:41:31;;;;;;;1.80;1.70;;;;;;;3.50;80.23;94982.57;1687352;84;21004;-80
2021/12/01 11:43:58;;;;;;;2.08;1.87;;;;;;;3.46;80.31;94992.87;1687292;84;21072;-80
2021/12/01 11:46:23;;;;;;;1.77;1.37;;;;;;;3.46;80.22;94992.87;1687039;84;20996;-80
2021/12/01 11:48:57;;;;;;;1.42;1.32;;;;;;;3.45;81.06;94978.93;1686897;84;21287;-80